Time;durP1;ratioP1;P1;durP2;ratioP2;P2;SDS_P1;SDS_P2;PMS_P1;PMS_P2;Temp;Humidity;BMP_temperature;BMP_pressure;BME280_temperature;BME280_humidity;BME280_pressure;Samples;Min_cycle;Max_cycle;Signal;HPM_P1;HPM_P2
2021/05/27 00:00:26;;;;;;;7.10;6.40;;;;;;;;;;5013968;28;20202;-61
2021/05/27 00:02:53;;;;;;;7.05;6.45;;;;;;;;;;5013931;28;20621;-60
2021/05/27 00:05:20;;;;;;;6.88;6.28;;;;;;;;;;5013913;28;20202;-61
2021/05/27 00:07:47;;;;;;;6.30;5.70;;;;;;;;;;5013605;28;20229;-60
2021/05/27 00:10:15;;;;;;;6.53;5.72;;;;;;;;;;5013341;28;20693;-62
2021/05/27 00:12:42;;;;;;;6.40;5.82;;;;;;;;;;5013934;28;20222;-60
2021/05/27 00:15:10;;;;;;;5.68;5.10;;;;;;;;;;5013781;28;20643;-61
2021/05/27 00:17:37;;;;;;;6.15;5.47;;;;;;;;;;5014323;28;20203;-60
2021/05/27 00:20:05;;;;;;;5.57;5.03;;;;;;;;;;5013440;28;20234;-61
2021/05/27 00:22:33;;;;;;;5.30;4.80;;;;;;;;;;5013650;28;20261;-62
2021/05/27 00:25:00;;;;;;;5.20;4.65;;;;;;;;;;5018191;28;20226;-61
2021/05/27 00:27:26;;;;;;;4.72;4.20;;;;;;;;;;5017631;28;20256;-61
2021/05/27 00:29:53;;;;;;;5.25;4.40;;;;;;;;;;5017597;28;20227;-61
2021/05/27 00:32:20;;;;;;;4.72;4.32;;;;;;;;;;5017699;28;20207;-61
2021/05/27 00:34:47;;;;;;;4.90;4.50;;;;;;;;;;5017586;28;20210;-60
2021/05/27 00:37:13;;;;;;;4.70;4.30;;;;;;;;;;5017692;28;20202;-61
2021/05/27 00:39:41;;;;;;;5.22;4.60;;;;;;;;;;5017449;28;20219;-61
2021/05/27 00:42:08;;;;;;;6.65;4.70;;;;;;;;;;5017172;28;20234;-65
2021/05/27 00:44:35;;;;;;;5.57;4.50;;;;;;;;;;5017388;28;20265;-61
2021/05/27 00:47:02;;;;;;;5.45;4.72;;;;;;;;;;5017055;28;20737;-62
2021/05/27 00:49:29;;;;;;;4.45;4.15;;;;;;;;;;5017067;28;20280;-62
2021/05/27 00:51:56;;;;;;;5.07;4.68;;;;;;;;;;5017150;28;20207;-62
2021/05/27 00:54:23;;;;;;;5.82;4.30;;;;;;;;;;5017231;28;20257;-62
2021/05/27 00:56:52;;;;;;;6.45;4.05;;;;;;;;;;5017102;28;20242;-62
2021/05/27 00:59:20;;;;;;;3.55;3.25;;;;;;;;;;5017541;28;20277;-61
2021/05/27 01:01:49;;;;;;;4.18;3.75;;;;;;;;;;5016807;28;20203;-61
2021/05/27 01:04:16;;;;;;;7.03;3.70;;;;;;;;;;5017138;28;20294;-61
2021/05/27 01:06:42;;;;;;;3.90;3.60;;;;;;;;;;5016978;28;20199;-62
2021/05/27 01:09:09;;;;;;;4.38;3.97;;;;;;;;;;5016984;28;20227;-61
2021/05/27 01:11:36;;;;;;;4.25;3.85;;;;;;;;;;5017066;28;20203;-61
2021/05/27 01:14:13;;;;;;;5.03;4.25;;;;;;;;;;5017102;28;20254;-62
2021/05/27 01:16:40;;;;;;;3.47;3.28;;;;;;;;;;5016528;28;20187;-61
2021/05/27 01:19:06;;;;;;;6.05;3.90;;;;;;;;;;5016549;28;20226;-61
2021/05/27 01:21:33;;;;;;;7.32;3.50;;;;;;;;;;5016562;28;20259;-61
2021/05/27 01:24:01;;;;;;;3.25;3.05;;;;;;;;;;5016795;28;20203;-61
2021/05/27 01:26:28;;;;;;;3.80;3.50;;;;;;;;;;5016845;28;20202;-61
2021/05/27 01:28:55;;;;;;;3.35;3.05;;;;;;;;;;5016327;28;20706;-62
2021/05/27 01:31:22;;;;;;;3.45;3.15;;;;;;;;;;5016392;28;20199;-61
2021/05/27 01:33:48;;;;;;;4.63;2.90;;;;;;;;;;5016704;28;20210;-61
2021/05/27 01:36:15;;;;;;;5.82;3.60;;;;;;;;;;5015911;28;20290;-62
2021/05/27 01:38:42;;;;;;;3.75;3.45;;;;;;;;;;5016089;28;20710;-63
2021/05/27 01:41:09;;;;;;;4.18;3.60;;;;;;;;;;5015973;28;20249;-62
2021/05/27 01:43:36;;;;;;;4.38;3.67;;;;;;;;;;5016076;28;20608;-61
2021/05/27 01:46:03;;;;;;;4.80;4.40;;;;;;;;;;5016158;28;20258;-61
2021/05/27 01:48:30;;;;;;;4.50;4.15;;;;;;;;;;5016088;28;20223;-62
2021/05/27 01:50:56;;;;;;;5.43;4.93;;;;;;;;;;5016079;28;20206;-61
2021/05/27 01:53:23;;;;;;;4.93;4.30;;;;;;;;;;5016029;28;20210;-62
2021/05/27 01:55:50;;;;;;;4.65;4.25;;;;;;;;;;5015621;28;20210;-61
2021/05/27 01:58:18;;;;;;;5.53;5.13;;;;;;;;;;5015828;28;20215;-62
2021/05/27 02:00:45;;;;;;;5.70;5.30;;;;;;;;;;5015597;28;20233;-60
2021/05/27 02:03:12;;;;;;;5.90;5.40;;;;;;;;;;5015905;28;20203;-61
2021/05/27 02:05:39;;;;;;;5.15;4.68;;;;;;;;;;5015542;28;20210;-62
2021/05/27 02:08:06;;;;;;;5.07;4.57;;;;;;;;;;5015561;28;20222;-62
2021/05/27 02:10:33;;;;;;;5.90;5.40;;;;;;;;;;5015724;28;20211;-62
2021/05/27 02:12:59;;;;;;;5.63;5.13;;;;;;;;;;5015334;28;20671;-61
2021/05/27 02:15:27;;;;;;;5.32;4.82;;;;;;;;;;5015483;28;20203;-61
2021/05/27 02:17:54;;;;;;;6.50;4.80;;;;;;;;;;5015184;28;20207;-62
2021/05/27 02:20:21;;;;;;;5.00;4.60;;;;;;;;;;5042778;22;20231;-64
2021/05/27 02:22:47;;;;;;;4.93;4.43;;;;;;;;;;5018655;28;20203;-62
2021/05/27 02:25:15;;;;;;;7.45;4.85;;;;;;;;;;5017617;28;20207;-64
2021/05/27 02:27:42;;;;;;;5.70;5.20;;;;;;;;;;5018213;28;20203;-63
2021/05/27 02:30:09;;;;;;;5.43;4.93;;;;;;;;;;5020446;28;20289;-64
2021/05/27 02:32:36;;;;;;;7.65;5.72;;;;;;;;;;5023318;28;20199;-64
2021/05/27 02:35:03;;;;;;;5.10;4.70;;;;;;;;;;5026191;28;20199;-64
2021/05/27 02:37:30;;;;;;;5.30;4.80;;;;;;;;;;5021010;28;20229;-63
2021/05/27 02:39:57;;;;;;;5.22;4.75;;;;;;;;;;5018530;28;20219;-64
2021/05/27 02:42:24;;;;;;;5.57;5.07;;;;;;;;;;5017313;28;20199;-64
2021/05/27 02:44:50;;;;;;;5.90;5.32;;;;;;;;;;5016451;28;20206;-64
2021/05/27 02:47:17;;;;;;;6.78;6.07;;;;;;;;;;5015159;28;20203;-65
2021/05/27 02:49:45;;;;;;;5.68;5.13;;;;;;;;;;5017225;28;20230;-64
2021/05/27 02:52:11;;;;;;;6.07;5.63;;;;;;;;;;5022660;28;20667;-64
2021/05/27 02:54:38;;;;;;;8.55;6.18;;;;;;;;;;5021902;28;20638;-64
2021/05/27 02:57:05;;;;;;;6.72;5.60;;;;;;;;;;5018016;28;20203;-63
2021/05/27 02:59:32;;;;;;;5.57;5.07;;;;;;;;;;5016898;28;20222;-64
2021/05/27 03:01:59;;;;;;;7.35;6.63;;;;;;;;;;5015546;28;20709;-64
2021/05/27 03:04:25;;;;;;;5.82;5.43;;;;;;;;;;5014649;28;20675;-64
2021/05/27 03:06:53;;;;;;;8.10;5.10;;;;;;;;;;5014687;28;20203;-64
2021/05/27 03:09:20;;;;;;;7.80;5.00;;;;;;;;;;5014858;28;20231;-63
2021/05/27 03:11:46;;;;;;;5.32;4.57;;;;;;;;;;5016316;28;20627;-65
2021/05/27 03:14:13;;;;;;;6.05;5.45;;;;;;;;;;5021950;28;20263;-64
2021/05/27 03:16:40;;;;;;;6.18;5.18;;;;;;;;;;5016068;28;20199;-65
2021/05/27 03:19:07;;;;;;;5.85;5.25;;;;;;;;;;5015098;28;20235;-65
2021/05/27 03:21:33;;;;;;;6.07;5.10;;;;;;;;;;5016522;28;20207;-63
2021/05/27 03:24:01;;;;;;;7.93;4.90;;;;;;;;;;5015065;28;20670;-63
2021/05/27 03:26:28;;;;;;;4.55;4.15;;;;;;;;;;5015801;28;20232;-63
2021/05/27 03:28:54;;;;;;;5.57;4.35;;;;;;;;;;5016178;28;20227;-64
2021/05/27 03:31:21;;;;;;;4.70;4.30;;;;;;;;;;5014714;28;20601;-65
2021/05/27 03:33:48;;;;;;;5.38;3.90;;;;;;;;;;5014458;28;20207;-65
2021/05/27 03:36:15;;;;;;;4.50;4.10;;;;;;;;;;5014198;28;20697;-64
2021/05/27 03:38:41;;;;;;;6.20;4.05;;;;;;;;;;5013901;28;20677;-65
2021/05/27 03:41:09;;;;;;;3.90;3.60;;;;;;;;;;5013939;28;20207;-65
2021/05/27 03:43:36;;;;;;;3.92;3.40;;;;;;;;;;5014214;28;20237;-64
2021/05/27 03:46:03;;;;;;;4.25;3.42;;;;;;;;;;5014069;28;20202;-65
2021/05/27 03:48:29;;;;;;;5.03;3.90;;;;;;;;;;5016071;28;20219;-63
2021/05/27 03:50:56;;;;;;;3.85;3.55;;;;;;;;;;5015286;28;20210;-64
2021/05/27 03:53:23;;;;;;;4.03;3.30;;;;;;;;;;5015161;28;20206;-64
2021/05/27 03:55:50;;;;;;;3.53;3.13;;;;;;;;;;5015417;28;20207;-64
2021/05/27 04:01:03;;;;;;;3.45;3.15;;;;;;;;;;5014901;28;20186;-63
2021/05/27 04:07:04;;;;;;;2.90;2.63;;;;;;;;;;5030930;23;20207;-60
2021/05/27 04:08:08;;;;;;;4.25;2.88;;;;;;;;;;5090918;28;20567;-59
2021/05/27 04:10:35;;;;;;;3.63;3.33;;;;;;;;;;5091001;28;20196;-58
2021/05/27 04:13:02;;;;;;;3.47;2.88;;;;;;;;;;5090924;28;20207;-58
2021/05/27 04:15:32;;;;;;;3.53;3.05;;;;;;;;;;5090809;28;20216;-58
2021/05/27 04:18:00;;;;;;;3.00;2.80;;;;;;;;;;5092478;28;20292;-61
2021/05/27 04:20:28;;;;;;;2.70;2.50;;;;;;;;;;5090594;28;20230;-59
2021/05/27 04:22:55;;;;;;;5.38;4.15;;;;;;;;;;5090835;28;20201;-59
2021/05/27 04:25:24;;;;;;;2.83;2.63;;;;;;;;;;5090614;28;20216;-59
2021/05/27 04:27:51;;;;;;;5.38;2.60;;;;;;;;;;5090113;28;20212;-59
2021/05/27 04:30:19;;;;;;;2.80;2.30;;;;;;;;;;5090328;28;20196;-59
2021/05/27 04:32:57;;;;;;;3.25;2.92;;;;;;;;;;5090247;28;20201;-58
2021/05/27 04:35:28;;;;;;;2.92;2.63;;;;;;;;;;5091580;28;20222;-58
2021/05/27 04:37:56;;;;;;;2.42;2.22;;;;;;;;;;5090745;28;20180;-59
2021/05/27 04:40:24;;;;;;;3.72;2.40;;;;;;;;;;5090032;28;20322;-59
2021/05/27 04:42:50;;;;;;;3.47;2.78;;;;;;;;;;5090602;28;20318;-59
2021/05/27 04:45:17;;;;;;;3.10;2.72;;;;;;;;;;5090197;28;20217;-59
2021/05/27 04:47:44;;;;;;;5.60;3.00;;;;;;;;;;5090113;28;20273;-59
2021/05/27 04:50:11;;;;;;;3.08;2.75;;;;;;;;;;5090154;28;20257;-56
2021/05/27 04:52:38;;;;;;;2.70;2.50;;;;;;;;;;5090304;28;20203;-58
2021/05/27 04:55:06;;;;;;;2.90;2.60;;;;;;;;;;5090003;28;20493;-58
2021/05/27 04:57:34;;;;;;;6.90;3.40;;;;;;;;;;5089664;28;20447;-61
2021/05/27 05:00:00;;;;;;;5.60;3.23;;;;;;;;;;5089971;28;20438;-60
2021/05/27 05:02:27;;;;;;;4.87;3.40;;;;;;;;;;5089769;28;20442;-59
2021/05/27 05:04:54;;;;;;;3.17;2.70;;;;;;;;;;5089440;28;20512;-59
2021/05/27 05:07:21;;;;;;;3.93;2.90;;;;;;;;;;5089539;28;20489;-58
2021/05/27 05:09:47;;;;;;;3.83;2.80;;;;;;;;;;5089805;28;20446;-58
2021/05/27 05:12:14;;;;;;;3.33;3.03;;;;;;;;;;5089460;28;20925;-59
2021/05/27 05:14:42;;;;;;;2.73;2.53;;;;;;;;;;5089536;28;20467;-58
2021/05/27 05:17:09;;;;;;;3.20;2.50;;;;;;;;;;5089334;28;20438;-59
2021/05/27 05:19:35;;;;;;;3.47;2.70;;;;;;;;;;5076588;28;20451;-60
2021/05/27 05:22:02;;;;;;;3.77;2.40;;;;;;;;;;5075921;28;20443;-59
2021/05/27 05:24:29;;;;;;;3.20;2.90;;;;;;;;;;5075692;28;20970;-58
2021/05/27 05:26:55;;;;;;;5.60;3.00;;;;;;;;;;5076032;28;20483;-58
2021/05/27 05:29:22;;;;;;;4.50;2.50;;;;;;;;;;5075914;28;20439;-58
2021/05/27 05:31:50;;;;;;;5.93;3.50;;;;;;;;;;5075575;28;20443;-58
2021/05/27 05:34:17;;;;;;;2.73;2.20;;;;;;;;;;5075831;28;20467;-58
2021/05/27 05:36:43;;;;;;;3.00;2.70;;;;;;;;;;5075824;28;20448;-57
2021/05/27 05:39:10;;;;;;;3.23;2.93;;;;;;;;;;5075806;28;20448;-58
2021/05/27 05:41:38;;;;;;;5.43;2.70;;;;;;;;;;5075504;28;20451;-58
2021/05/27 05:44:05;;;;;;;3.30;2.50;;;;;;;;;;5075789;28;20490;-58
2021/05/27 05:46:32;;;;;;;6.57;2.73;;;;;;;;;;5075734;28;20471;-58
2021/05/27 05:48:59;;;;;;;2.70;2.50;;;;;;;;;;5075200;28;20451;-59
2021/05/27 05:51:26;;;;;;;5.23;3.40;;;;;;;;;;5057450;22;20501;-57
2021/05/27 05:53:53;;;;;;;3.30;2.77;;;;;;;;;;5035483;28;20449;-58
2021/05/27 05:56:20;;;;;;;2.83;2.53;;;;;;;;;;5035534;28;20456;-57
2021/05/27 05:58:46;;;;;;;2.83;2.40;;;;;;;;;;5035815;28;20457;-57
2021/05/27 06:01:15;;;;;;;4.37;3.23;;;;;;;;;;5035128;28;21038;-57
2021/05/27 06:03:42;;;;;;;3.65;3.20;;;;;;;;;;5035409;28;20817;-58
2021/05/27 06:06:11;;;;;;;3.37;3.07;;;;;;;;;;5034994;28;20202;-56
2021/05/27 06:08:40;;;;;;;6.53;3.20;;;;;;;;;;5034945;28;20453;-57
2021/05/27 06:11:07;;;;;;;5.43;3.37;;;;;;;;;;5035211;28;20571;-57
2021/05/27 06:13:33;;;;;;;3.40;3.10;;;;;;;;;;5059518;22;20543;-59
2021/05/27 06:16:00;;;;;;;4.70;2.80;;;;;;;;;;5035271;28;20456;-58
2021/05/27 06:18:27;;;;;;;3.80;2.53;;;;;;;;;;5034593;28;20445;-58
2021/05/27 06:20:54;;;;;;;3.43;2.50;;;;;;;;;;5035125;28;20440;-58
2021/05/27 06:23:23;;;;;;;2.30;2.10;;;;;;;;;;5035289;28;20447;-59
2021/05/27 06:25:51;;;;;;;2.43;2.23;;;;;;;;;;5014748;28;20459;-59
2021/05/27 06:28:18;;;;;;;2.80;2.60;;;;;;;;;;5043438;22;21585;-57
2021/05/27 06:30:44;;;;;;;4.20;2.92;;;;;;;;;;5035310;28;20434;-56
2021/05/27 06:33:11;;;;;;;3.70;2.70;;;;;;;;;;5037327;28;20243;-57
2021/05/27 06:35:38;;;;;;;2.73;2.53;;;;;;;;;;5036575;28;20445;-56
2021/05/27 06:38:07;;;;;;;4.20;3.30;;;;;;;;;;5035451;28;20491;-56
2021/05/27 06:40:35;;;;;;;2.53;2.33;;;;;;;;;;5036148;28;20913;-56
2021/05/27 06:43:02;;;;;;;4.03;3.67;;;;;;;;;;5035066;28;20234;-56
2021/05/27 06:45:28;;;;;;;2.53;2.33;;;;;;;;;;5035021;28;20452;-56
2021/05/27 06:47:55;;;;;;;2.70;2.30;;;;;;;;;;5035416;28;20481;-56
2021/05/27 06:50:36;;;;;;;2.67;2.47;;;;;;;;;;5035390;28;20453;-56
2021/05/27 06:53:04;;;;;;;2.60;2.40;;;;;;;;;;5035364;28;20905;-55
2021/05/27 06:55:30;;;;;;;2.10;1.90;;;;;;;;;;5035146;28;20859;-54
2021/05/27 06:57:58;;;;;;;2.37;2.17;;;;;;;;;;5034725;28;20818;-56
2021/05/27 07:00:25;;;;;;;2.58;2.20;;;;;;;;;;5068182;22;21015;-59
2021/05/27 07:02:52;;;;;;;2.40;2.20;;;;;;;;;;5034275;28;20268;-59
2021/05/27 07:05:19;;;;;;;3.83;2.40;;;;;;;;;;5033651;28;20205;-59
2021/05/27 07:07:46;;;;;;;2.35;1.80;;;;;;;;;;5033879;28;20218;-59
2021/05/27 07:10:14;;;;;;;2.38;2.17;;;;;;;;;;5034207;28;20225;-59
2021/05/27 07:12:47;;;;;;;2.67;1.80;;;;;;;;;;5033775;28;20207;-58
2021/05/27 07:15:15;;;;;;;2.10;1.90;;;;;;;;;;5034076;28;20208;-59
2021/05/27 07:17:42;;;;;;;2.35;2.08;;;;;;;;;;5034277;28;20250;-59
2021/05/27 07:20:10;;;;;;;1.65;1.55;;;;;;;;;;5033836;28;20226;-59
2021/05/27 07:22:36;;;;;;;1.90;1.80;;;;;;;;;;5033929;28;20266;-59
2021/05/27 07:25:04;;;;;;;3.85;3.08;;;;;;;;;;5033692;28;20670;-61
2021/05/27 07:27:30;;;;;;;4.70;2.15;;;;;;;;;;5034127;28;20222;-60
2021/05/27 07:29:58;;;;;;;1.73;1.63;;;;;;;;;;5034067;28;20205;-61
2021/05/27 07:32:25;;;;;;;1.80;1.70;;;;;;;;;;5033350;28;20952;-59
2021/05/27 07:34:52;;;;;;;3.10;2.13;;;;;;;;;;5033873;28;20503;-59
2021/05/27 07:37:19;;;;;;;2.63;1.87;;;;;;;;;;5033444;28;20449;-59
2021/05/27 07:39:46;;;;;;;3.70;1.90;;;;;;;;;;5033633;28;20456;-59
2021/05/27 07:42:13;;;;;;;2.40;1.67;;;;;;;;;;5033196;28;20960;-61
2021/05/27 07:44:40;;;;;;;2.90;1.70;;;;;;;;;;5033149;28;20964;-58
2021/05/27 07:47:06;;;;;;;1.60;1.33;;;;;;;;;;5033177;28;20532;-59
2021/05/27 07:49:34;;;;;;;1.70;1.60;;;;;;;;;;5033109;28;20445;-61
2021/05/27 07:52:01;;;;;;;1.57;1.47;;;;;;;;;;5033007;28;20495;-59
2021/05/27 07:54:28;;;;;;;2.87;2.13;;;;;;;;;;5033133;28;20453;-59
2021/05/27 07:56:55;;;;;;;3.13;1.83;;;;;;;;;;5032913;28;20445;-58
2021/05/27 07:59:22;;;;;;;1.30;1.20;;;;;;;;;;5032717;28;20449;-59
2021/05/27 08:01:48;;;;;;;1.93;1.73;;;;;;;;;;5032801;28;20480;-59
2021/05/27 08:04:15;;;;;;;1.30;1.20;;;;;;;;;;5033092;28;20472;-59
2021/05/27 08:06:43;;;;;;;1.63;1.47;;;;;;;;;;5033032;28;20542;-59
2021/05/27 08:09:11;;;;;;;1.40;1.30;;;;;;;;;;5032862;28;20441;-59
2021/05/27 08:11:38;;;;;;;4.27;1.70;;;;;;;;;;5032994;28;20491;-59
2021/05/27 08:14:05;;;;;;;1.87;1.30;;;;;;;;;;5033376;28;20445;-59
2021/05/27 08:16:32;;;;;;;1.63;1.30;;;;;;;;;;5033176;28;20452;-59
2021/05/27 08:18:59;;;;;;;1.40;1.30;;;;;;;;;;5054354;22;20886;-61
2021/05/27 08:21:26;;;;;;;2.67;1.63;;;;;;;;;;5019209;28;20453;-57
2021/05/27 08:23:54;;;;;;;2.00;1.67;;;;;;;;;;5013241;28;20450;-56
2021/05/27 08:26:20;;;;;;;1.50;1.40;;;;;;;;;;5012719;28;20457;-58
2021/05/27 08:28:47;;;;;;;1.73;1.60;;;;;;;;;;5013389;28;20474;-58
2021/05/27 08:31:14;;;;;;;2.00;1.73;;;;;;;;;;5013217;28;20442;-57
2021/05/27 08:33:41;;;;;;;2.00;1.53;;;;;;;;;;5013037;28;20812;-57
2021/05/27 08:36:08;;;;;;;1.37;1.27;;;;;;;;;;5012816;28;20446;-58
2021/05/27 08:38:35;;;;;;;1.47;1.33;;;;;;;;;;5013041;28;20461;-58
2021/05/27 08:41:03;;;;;;;2.00;1.80;;;;;;;;;;5012862;28;20446;-57
2021/05/27 08:43:30;;;;;;;1.87;1.50;;;;;;;;;;5012800;28;20449;-57
2021/05/27 08:45:58;;;;;;;1.90;1.70;;;;;;;;;;5013066;28;20453;-57
2021/05/27 08:48:24;;;;;;;2.17;1.40;;;;;;;;;;5012671;28;20484;-57
2021/05/27 08:50:52;;;;;;;1.90;1.80;;;;;;;;;;5012642;28;20450;-57
2021/05/27 08:53:20;;;;;;;1.67;1.47;;;;;;;;;;5013954;28;20941;-58
2021/05/27 08:55:47;;;;;;;2.77;2.00;;;;;;;;;;5016327;28;20458;-57
2021/05/27 08:58:15;;;;;;;1.57;1.47;;;;;;;;;;5016439;28;20452;-56
2021/05/27 09:00:42;;;;;;;1.70;1.60;;;;;;;;;;5016548;28;20461;-57
2021/05/27 09:03:10;;;;;;;1.90;1.77;;;;;;;;;;5017174;28;20445;-56
2021/05/27 09:05:38;;;;;;;1.67;1.57;;;;;;;;;;5017221;28;20536;-57
2021/05/27 09:08:05;;;;;;;2.10;1.90;;;;;;;;;;5016670;28;20473;-56
2021/05/27 09:10:42;;;;;;;2.50;2.30;;;;;;;;;;5016888;28;20474;-56
2021/05/27 09:13:09;;;;;;;1.73;1.63;;;;;;;;;;5017123;28;20449;-57
2021/05/27 09:15:37;;;;;;;2.37;2.03;;;;;;;;;;5016087;28;20937;-56
2021/05/27 09:18:04;;;;;;;2.50;2.30;;;;;;;;;;5016130;28;20438;-56
2021/05/27 09:20:31;;;;;;;3.57;2.17;;;;;;;;;;5015729;28;20965;-56
2021/05/27 09:23:09;;;;;;;2.67;2.30;;;;;;;;;;5016082;28;20476;-59
2021/05/27 09:25:37;;;;;;;1.85;1.75;;;;;;;;;;5015903;28;20253;-58
2021/05/27 09:28:05;;;;;;;2.72;2.53;;;;;;;;;;5015725;28;20231;-59
2021/05/27 09:30:31;;;;;;;2.43;2.17;;;;;;;;;;5016027;28;20292;-58
2021/05/27 09:32:59;;;;;;;2.03;1.93;;;;;;;;;;5016127;28;20445;-59
2021/05/27 09:35:26;;;;;;;2.47;2.27;;;;;;;;;;5015471;28;20442;-59
2021/05/27 09:37:55;;;;;;;4.40;2.30;;;;;;;;;;5015493;28;20529;-57
2021/05/27 09:40:32;;;;;;;2.57;2.37;;;;;;;;;;5015379;28;20474;-58
2021/05/27 09:42:59;;;;;;;1.67;1.57;;;;;;;;;;5015573;28;20503;-58
2021/05/27 09:45:27;;;;;;;1.70;1.60;;;;;;;;;;5015177;28;20494;-58
2021/05/27 09:47:53;;;;;;;1.40;1.30;;;;;;;;;;5015116;28;20535;-58
2021/05/27 09:50:31;;;;;;;1.50;1.40;;;;;;;;;;5015151;28;20470;-59
2021/05/27 09:52:58;;;;;;;2.10;1.90;;;;;;;;;;5015495;28;20774;-57
2021/05/27 09:55:25;;;;;;;1.50;1.40;;;;;;;;;;5015276;28;20449;-60
2021/05/27 09:57:52;;;;;;;1.37;1.27;;;;;;;;;;5015520;28;20442;-59
2021/05/27 10:00:26;;;;;;;1.40;1.20;;;;;;;;;;5015253;28;20470;-59
2021/05/27 10:02:53;;;;;;;1.63;1.53;;;;;;;;;;5015513;28;20457;-58
2021/05/27 10:05:20;;;;;;;2.30;1.70;;;;;;;;;;5015721;28;20449;-59
2021/05/27 10:07:49;;;;;;;1.83;1.70;;;;;;;;;;5015165;28;20573;-58
2021/05/27 10:10:17;;;;;;;1.47;1.17;;;;;;;;;;5014924;28;20466;-58
2021/05/27 10:12:44;;;;;;;2.10;2.00;;;;;;;;;;5015261;28;20442;-58
2021/05/27 10:15:13;;;;;;;1.50;1.40;;;;;;;;;;5015222;28;20445;-58
2021/05/27 10:17:40;;;;;;;1.53;1.43;;;;;;;;;;5015203;28;20442;-59
2021/05/27 10:20:09;;;;;;;1.40;1.30;;;;;;;;;;5014792;28;20473;-58
2021/05/27 10:22:36;;;;;;;2.00;1.23;;;;;;;;;;5014597;28;20872;-58
2021/05/27 10:25:06;;;;;;;1.47;1.30;;;;;;;;;;5015064;28;20503;-58
2021/05/27 10:27:32;;;;;;;2.50;1.50;;;;;;;;;;5014461;28;20577;-60
2021/05/27 10:30:00;;;;;;;3.60;1.43;;;;;;;;;;5014655;28;20464;-58
2021/05/27 10:32:28;;;;;;;2.50;1.60;;;;;;;;;;5014667;28;20450;-57
2021/05/27 10:34:55;;;;;;;1.27;1.17;;;;;;;;;;5014478;28;20449;-60
2021/05/27 10:37:42;;;;;;;1.40;1.30;;;;;;;;;;5014237;28;20446;-59
2021/05/27 10:40:37;;;;;;;1.67;1.30;;;;;;;;;;5014424;28;20906;-59
2021/05/27 10:43:09;;;;;;;2.50;1.57;;;;;;;;;;5014102;28;20473;-59
2021/05/27 10:45:56;;;;;;;1.30;1.20;;;;;;;;;;5014322;28;20854;-60
2021/05/27 10:48:26;;;;;;;1.80;1.43;;;;;;;;;;5014306;28;20474;-60
2021/05/27 10:51:18;;;;;;;1.67;1.57;;;;;;;;;;5014997;28;20893;-59
2021/05/27 10:53:50;;;;;;;1.70;1.60;;;;;;;;;;5014444;28;20517;-60
2021/05/27 10:56:19;;;;;;;1.50;1.40;;;;;;;;;;5014667;28;20508;-60
2021/05/27 10:59:10;;;;;;;3.30;1.50;;;;;;;;;;5014546;28;20473;-61
2021/05/27 11:01:55;;;;;;;2.50;1.77;;;;;;;;;;5014517;28;20426;-60
2021/05/27 11:04:23;;;;;;;1.97;1.80;;;;;;;;;;5014100;28;20442;-61
2021/05/27 11:06:50;;;;;;;2.10;1.90;;;;;;;;;;5013891;28;20477;-61
2021/05/27 11:09:35;;;;;;;2.40;2.20;;;;;;;;;;5014149;28;20469;-59
2021/05/27 11:12:33;;;;;;;2.40;1.50;;;;;;;;;;5013990;28;20482;-58
2021/05/27 11:15:06;;;;;;;2.53;1.93;;;;;;;;;;4934388;29;20438;-61
2021/05/27 11:17:33;;;;;;;2.40;1.83;;;;;;;;;;4999660;28;20828;-61
2021/05/27 11:20:04;;;;;;;2.13;1.90;;;;;;;;;;5014716;28;20536;-59
2021/05/27 11:22:43;;;;;;;1.90;1.70;;;;;;;;;;5013950;28;20850;-60
2021/05/27 11:28:26;;;;;;;2.47;1.70;;;;;;;;;;5013659;28;20485;-59
2021/05/27 11:30:56;;;;;;;2.10;1.93;;;;;;;;;;5014378;28;20434;-59
2021/05/27 11:33:29;;;;;;;2.90;2.17;;;;;;;;;;5013521;28;20520;-58
2021/05/27 11:35:57;;;;;;;3.43;1.93;;;;;;;;;;5013818;28;20489;-59
2021/05/27 11:38:24;;;;;;;2.03;1.83;;;;;;;;;;5013720;28;20550;-58
2021/05/27 11:40:52;;;;;;;2.43;2.07;;;;;;;;;;5013935;28;20445;-60
2021/05/27 11:43:20;;;;;;;2.13;1.90;;;;;;;;;;5013254;28;20462;-58
2021/05/27 11:45:48;;;;;;;2.00;1.80;;;;;;;;;;5013524;28;20446;-59
2021/05/27 11:48:20;;;;;;;2.20;1.90;;;;;;;;;;5013596;28;20493;-60
2021/05/27 11:50:47;;;;;;;2.20;1.73;;;;;;;;;;5013308;28;21008;-58
2021/05/27 11:53:17;;;;;;;2.03;1.83;;;;;;;;;;5013367;28;20450;-58
2021/05/27 11:55:43;;;;;;;1.60;1.50;;;;;;;;;;5013303;28;20477;-58
2021/05/27 11:58:10;;;;;;;1.60;1.50;;;;;;;;;;5013334;28;20438;-59
2021/05/27 12:00:37;;;;;;;2.80;1.83;;;;;;;;;;5013386;28;20585;-59
2021/05/27 12:03:04;;;;;;;2.30;1.53;;;;;;;;;;5013082;28;20454;-57
2021/05/27 12:05:32;;;;;;;2.10;1.90;;;;;;;;;;5013095;28;20476;-58
2021/05/27 12:08:03;;;;;;;2.83;1.83;;;;;;;;;;5012693;28;20508;-59
2021/05/27 12:10:31;;;;;;;3.37;2.33;;;;;;;;;;5013477;28;20465;-59
2021/05/27 12:12:59;;;;;;;5.67;1.60;;;;;;;;;;5013462;28;20462;-59
2021/05/27 12:15:26;;;;;;;4.40;1.80;;;;;;;;;;5013231;28;20504;-57
2021/05/27 12:17:53;;;;;;;3.00;1.80;;;;;;;;;;5012956;28;20863;-59
2021/05/27 12:20:27;;;;;;;2.00;1.57;;;;;;;;;;5012946;28;20509;-58
2021/05/27 12:22:56;;;;;;;2.00;1.80;;;;;;;;;;5013265;28;20794;-59
2021/05/27 12:25:24;;;;;;;2.83;1.90;;;;;;;;;;5012909;28;20446;-58
2021/05/27 12:27:52;;;;;;;2.17;1.63;;;;;;;;;;5013273;28;20477;-58
2021/05/27 12:30:22;;;;;;;4.50;2.53;;;;;;;;;;5016507;28;20474;-59
2021/05/27 12:32:50;;;;;;;3.00;2.70;;;;;;;;;;5016866;28;20449;-57
2021/05/27 12:35:18;;;;;;;4.20;2.90;;;;;;;;;;5016438;28;20933;-58
2021/05/27 12:37:48;;;;;;;4.43;2.97;;;;;;;;;;5016896;28;20450;-58
2021/05/27 12:40:23;;;;;;;5.80;3.40;;;;;;;;;;5016694;28;20565;-57
2021/05/27 12:42:49;;;;;;;4.63;3.53;;;;;;;;;;5016514;28;20429;-55
2021/05/27 12:45:27;;;;;;;5.20;4.07;;;;;;;;;;5016577;28;20962;-59
2021/05/27 12:48:03;;;;;;;4.73;3.70;;;;;;;;;;5016719;28;20872;-57
2021/05/27 12:50:30;;;;;;;4.77;3.87;;;;;;;;;;5016867;28;20476;-59
2021/05/27 12:52:57;;;;;;;3.93;3.17;;;;;;;;;;5016755;28;20441;-58
2021/05/27 12:55:28;;;;;;;2.63;2.40;;;;;;;;;;5017229;28;20798;-59
2021/05/27 12:57:56;;;;;;;6.57;2.90;;;;;;;;;;5016471;28;20426;-59
2021/05/27 13:00:23;;;;;;;4.40;3.53;;;;;;;;;;5016123;28;20560;-60
2021/05/27 13:03:03;;;;;;;5.20;2.77;;;;;;;;;;5016375;28;20504;-57
2021/05/27 13:05:30;;;;;;;4.07;2.40;;;;;;;;;;5016159;28;20445;-58
2021/05/27 13:07:57;;;;;;;3.00;2.20;;;;;;;;;;5016001;28;20493;-57
2021/05/27 13:10:28;;;;;;;3.73;2.10;;;;;;;;;;5016191;28;20602;-58
2021/05/27 13:12:55;;;;;;;4.80;2.67;;;;;;;;;;5016213;28;20478;-59
2021/05/27 13:15:22;;;;;;;3.13;2.50;;;;;;;;;;5016198;28;20591;-58
2021/05/27 13:18:08;;;;;;;5.20;2.40;;;;;;;;;;5016178;28;20441;-58
2021/05/27 13:20:57;;;;;;;3.40;2.40;;;;;;;;;;5016087;28;20531;-58
2021/05/27 13:23:25;;;;;;;2.50;2.30;;;;;;;;;;5015753;28;20434;-58
2021/05/27 13:25:53;;;;;;;2.23;2.00;;;;;;;;;;5016622;28;20471;-61
2021/05/27 13:28:23;;;;;;;2.57;2.20;;;;;;;;;;5015769;28;20496;-58
2021/05/27 13:30:51;;;;;;;2.60;1.90;;;;;;;;;;5015659;28;20565;-61
2021/05/27 13:33:20;;;;;;;2.80;2.60;;;;;;;;;;5015842;28;20957;-58
2021/05/27 13:35:50;;;;;;;3.10;2.13;;;;;;;;;;5016018;28;20450;-59
2021/05/27 13:38:19;;;;;;;2.33;2.13;;;;;;;;;;5015718;28;20452;-59
2021/05/27 13:40:46;;;;;;;3.43;2.10;;;;;;;;;;5015122;28;20462;-58
2021/05/27 13:43:13;;;;;;;2.27;1.90;;;;;;;;;;5015462;28;20465;-59
2021/05/27 13:45:40;;;;;;;4.63;2.57;;;;;;;;;;5015155;28;20847;-59
2021/05/27 13:48:07;;;;;;;1.87;1.53;;;;;;;;;;5015455;28;20977;-58
2021/05/27 13:50:35;;;;;;;1.60;1.03;;;;;;;;;;5015575;28;20481;-59
2021/05/27 13:53:04;;;;;;;3.50;2.00;;;;;;;;;;5016845;28;20446;-58
2021/05/27 13:55:32;;;;;;;2.20;2.00;;;;;;;;;;5016051;28;20454;-58
2021/05/27 13:57:59;;;;;;;2.70;1.70;;;;;;;;;;5015893;28;20534;-58
2021/05/27 14:00:27;;;;;;;2.27;1.63;;;;;;;;;;5015497;28;20478;-60
2021/05/27 14:05:25;;;;;;;3.70;1.87;;;;;;;;;;5034917;28;20497;-59
2021/05/27 14:07:53;;;;;;;1.83;1.73;;;;;;;;;;5034953;28;20535;-59
2021/05/27 14:10:20;;;;;;;5.90;1.70;;;;;;;;;;5035420;28;20452;-59
2021/05/27 14:12:47;;;;;;;2.30;1.87;;;;;;;;;;5035219;28;20480;-59
2021/05/27 14:15:14;;;;;;;3.00;2.10;;;;;;;;;;5034935;28;20465;-62
2021/05/27 14:17:42;;;;;;;3.00;1.60;;;;;;;;;;5035207;28;20441;-59
2021/05/27 14:20:09;;;;;;;4.07;1.90;;;;;;;;;;5034736;28;20480;-58
2021/05/27 14:22:36;;;;;;;3.10;1.80;;;;;;;;;;5034933;28;20445;-59
2021/05/27 14:25:03;;;;;;;3.03;2.07;;;;;;;;;;5034445;28;21007;-59
2021/05/27 14:27:30;;;;;;;2.40;2.10;;;;;;;;;;5034356;28;20500;-60
2021/05/27 14:29:57;;;;;;;4.23;1.63;;;;;;;;;;5034422;28;20453;-58
2021/05/27 14:32:24;;;;;;;3.13;1.60;;;;;;;;;;5034428;28;20527;-58
2021/05/27 14:34:51;;;;;;;2.30;1.30;;;;;;;;;;5035892;28;20481;-57
2021/05/27 14:37:18;;;;;;;3.33;1.53;;;;;;;;;;5034331;28;20453;-58
2021/05/27 14:39:45;;;;;;;3.30;1.90;;;;;;;;;;5034270;28;20529;-56
2021/05/27 14:42:12;;;;;;;2.20;2.00;;;;;;;;;;5034235;28;20441;-58
2021/05/27 14:44:39;;;;;;;3.73;2.30;;;;;;;;;;5034416;28;20473;-58
2021/05/27 14:47:06;;;;;;;5.20;2.90;;;;;;;;;;5034657;28;21007;-57
2021/05/27 14:49:32;;;;;;;5.13;2.80;;;;;;;;;;5034196;28;20548;-56
2021/05/27 14:52:00;;;;;;;4.60;3.10;;;;;;;;;;5033422;28;20449;-58
2021/05/27 14:54:27;;;;;;;6.73;3.43;;;;;;;;;;5033853;28;20461;-57
2021/05/27 14:56:54;;;;;;;3.40;2.83;;;;;;;;;;5033899;28;20451;-57
2021/05/27 14:59:21;;;;;;;7.73;1.97;;;;;;;;;;5034098;28;20445;-58